This is the latest recevied weather packets stored in our database for station/object E25HML-13. If no packets are shown the sender has not sent any weather packets the latest 1 day(s).
| Time | Temp. | Humidity | Pressure | Rain* | Wind** | Luminosity | Snow |
|---|---|---|---|---|---|---|---|
| 1778037217 | 32.22° C | 66% | 1007.5 hPa | - | - | - | - |
| 1778036917 | 32.22° C | 66% | 1007.4 hPa | - | - | - | - |
| 1778036318 | 32.22° C | 66% | 1007.4 hPa | - | - | - | - |
| 1778036017 | 32.78° C | 65% | 1007.4 hPa | - | - | - | - |
| 1778035418 | 32.22° C | 67% | 1007.4 hPa | - | - | - | - |
| 1778035118 | 32.22° C | 67% | 1007.4 hPa | - | - | - | - |
| 1778034817 | 32.78° C | 65% | 1007.4 hPa | - | - | - | - |
| 1778034517 | 33.33° C | 62% | 1007.4 hPa | - | - | - | - |
| 1778034218 | 33.33° C | 63% | 1007.4 hPa | - | - | - | - |
| 1778033918 | 32.78° C | 63% | 1007.4 hPa | - | - | - | - |
| 1778033618 | 32.78° C | 64% | 1007.4 hPa | - | - | - | - |
| 1778033318 | 32.78° C | 64% | 1007.4 hPa | - | - | - | - |
| 1778033017 | 32.22° C | 65% | 1007.4 hPa | - | - | - | - |
| 1778032417 | 31.67° C | 66% | 1007.6 hPa | - | - | - | - |
| 1778032118 | 31.67° C | 66% | 1007.5 hPa | - | - | - | - |
| 1778031817 | 32.78° C | 62% | 1007.5 hPa | - | - | - | - |
| 1778031517 | 33.89° C | 59% | 1007.3 hPa | - | - | - | - |
| 1778031218 | 33.89° C | 59% | 1007.2 hPa | - | - | - | - |
| 1778030917 | 33.89° C | 59% | 1007.2 hPa | - | - | - | - |
| 1778030317 | 33.89° C | 59% | 1007.2 hPa | - | - | - | - |
| 1778030017 | 33.89° C | 59% | 1007.3 hPa | - | - | - | - |
| 1778029717 | 33.33° C | 59% | 1007.3 hPa | - | - | - | - |
| 1778029417 | 33.33° C | 60% | 1007.2 hPa | - | - | - | - |
| 1778028217 | 32.22° C | 63% | 1007.1 hPa | - | - | - | - |
| 1778027917 | 32.78° C | 63% | 1007.1 hPa | - | - | - | - |
* Rain since midnight (hover to see other rain measurements)
** Current wind speed in m/s (hover to see current wind gust speed)